Time;durP1;ratioP1;P1;durP2;ratioP2;P2;SDS_P1;SDS_P2;PMS_P1;PMS_P2;Temp;Humidity;BMP_temperature;BMP_pressure;BME280_temperature;BME280_humidity;BME280_pressure;Samples;Min_cycle;Max_cycle;Signal;HPM_P1;HPM_P2
2021/11/08 00:01:30;;;;;;;0.20;0.20;;;8.20;99.90;;;;;;5015857;28;20038;-77
2021/11/08 00:03:56;;;;;;;0.20;0.20;;;8.20;99.90;;;;;;5015728;28;20034;-77
2021/11/08 00:06:22;;;;;;;0.20;0.20;;;8.10;99.90;;;;;;5015090;28;20080;-78
2021/11/08 00:08:47;;;;;;;0.20;0.20;;;8.10;99.90;;;;;;5016326;28;20105;-77
2021/11/08 00:11:13;;;;;;;0.20;0.20;;;8.10;99.90;;;;;;5014331;28;20049;-78
2021/11/08 00:13:39;;;;;;;0.20;0.20;;;8.10;99.90;;;;;;5014481;28;20084;-77
2021/11/08 00:16:16;;;;;;;0.20;0.20;;;8.10;99.90;;;;;;5014207;28;20025;-77
2021/11/08 00:21:08;;;;;;;0.20;0.20;;;8.10;99.90;;;;;;5015508;28;20037;-78
2021/11/08 00:23:34;;;;;;;0.20;0.20;;;8.10;99.90;;;;;;5014720;28;20026;-76
2021/11/08 00:26:01;;;;;;;0.20;0.20;;;8.10;99.90;;;;;;5015272;28;20034;-77
2021/11/08 00:28:27;;;;;;;0.20;0.20;;;8.10;99.90;;;;;;5014192;28;20026;-77
2021/11/08 00:30:54;;;;;;;0.20;0.20;;;8.00;99.90;;;;;;5014019;28;20135;-77
2021/11/08 00:33:21;;;;;;;0.30;0.30;;;8.00;99.90;;;;;;5014009;28;20401;-77
2021/11/08 00:35:49;;;;;;;0.22;0.20;;;8.00;99.90;;;;;;5014459;28;20089;-77
2021/11/08 00:38:16;;;;;;;0.30;0.30;;;7.90;99.90;;;;;;5013973;28;20327;-77
2021/11/08 00:40:42;;;;;;;0.20;0.20;;;7.90;99.90;;;;;;5014681;28;20173;-77
2021/11/08 00:43:09;;;;;;;0.20;0.20;;;8.00;99.90;;;;;;5014987;28;20423;-77
2021/11/08 00:45:35;;;;;;;0.20;0.20;;;7.90;99.90;;;;;;5013588;28;20117;-77
2021/11/08 00:48:02;;;;;;;0.20;0.20;;;8.00;99.90;;;;;;5014831;28;20018;-78
2021/11/08 00:50:28;;;;;;;0.20;0.20;;;7.90;99.90;;;;;;5012655;28;20401;-78
2021/11/08 00:52:54;;;;;;;0.20;0.20;;;8.00;99.90;;;;;;5015250;28;20022;-78
2021/11/08 00:55:22;;;;;;;0.20;0.20;;;7.90;99.90;;;;;;5014659;28;20080;-77
2021/11/08 00:57:49;;;;;;;0.57;0.20;;;7.90;99.90;;;;;;5012984;28;20064;-77
2021/11/08 01:00:18;;;;;;;0.20;0.20;;;7.90;99.90;;;;;;5013347;28;20118;-78
2021/11/08 01:02:43;;;;;;;0.20;0.20;;;7.90;99.90;;;;;;5013179;28;20045;-77
2021/11/08 01:05:11;;;;;;;0.20;0.20;;;7.90;99.90;;;;;;5014291;28;20069;-77
2021/11/08 01:07:37;;;;;;;0.20;0.20;;;7.90;99.90;;;;;;5014741;28;20045;-77
2021/11/08 01:10:09;;;;;;;0.20;0.20;;;7.90;99.90;;;;;;5013474;28;20018;-77
2021/11/08 01:12:35;;;;;;;0.28;0.28;;;7.90;99.90;;;;;;5014489;28;20101;-77
2021/11/08 01:15:04;;;;;;;0.20;0.20;;;7.90;99.90;;;;;;5013116;28;20105;-78
2021/11/08 01:17:30;;;;;;;0.30;0.30;;;7.80;99.90;;;;;;5014469;28;20022;-77
2021/11/08 01:19:56;;;;;;;0.20;0.20;;;7.80;99.90;;;;;;5013996;28;20529;-77
2021/11/08 01:22:22;;;;;;;0.40;0.30;;;7.80;99.90;;;;;;5012905;28;20390;-77
2021/11/08 01:24:56;;;;;;;0.20;0.20;;;7.80;99.90;;;;;;5013025;28;20033;-77
2021/11/08 01:27:42;;;;;;;0.20;0.20;;;7.80;99.90;;;;;;5014705;28;20021;-76
2021/11/08 01:30:20;;;;;;;0.20;0.20;;;7.80;99.90;;;;;;5014172;28;20113;-77
2021/11/08 01:35:33;;;;;;;0.25;0.25;;;7.70;99.90;;;;;;5013664;28;20228;-78
2021/11/08 01:38:43;;;;;;;0.20;0.20;;;7.70;99.90;;;;;;5012977;28;20026;-77
2021/11/08 01:40:50;;;;;;;0.22;0.22;;;7.70;99.90;;;;;;5008323;28;20484;-77
2021/11/08 01:43:16;;;;;;;0.25;0.20;;;7.70;99.90;;;;;;5013998;28;20014;-77
2021/11/08 01:45:42;;;;;;;0.20;0.20;;;7.80;99.90;;;;;;5012547;28;20457;-77
2021/11/08 01:48:10;;;;;;;0.20;0.20;;;7.80;99.90;;;;;;5012519;28;20018;-77
2021/11/08 01:50:37;;;;;;;0.20;0.20;;;7.90;99.90;;;;;;5012751;28;20037;-77
2021/11/08 01:53:04;;;;;;;0.20;0.20;;;7.90;99.90;;;;;;5013448;28;20374;-77
2021/11/08 01:55:31;;;;;;;0.20;0.20;;;7.80;99.90;;;;;;5012296;28;20039;-77
2021/11/08 01:57:58;;;;;;;0.20;0.20;;;7.80;99.90;;;;;;5013972;28;20414;-77
2021/11/08 02:00:26;;;;;;;0.20;0.20;;;7.70;99.90;;;;;;5012456;28;20080;-77
2021/11/08 02:02:52;;;;;;;0.20;0.20;;;7.70;99.90;;;;;;5011934;28;20049;-78
2021/11/08 02:05:18;;;;;;;0.20;0.20;;;7.70;99.90;;;;;;5013928;28;20030;-78
2021/11/08 02:07:45;;;;;;;0.30;0.30;;;7.60;99.90;;;;;;5013678;28;20080;-78
2021/11/08 02:10:14;;;;;;;0.43;0.20;;;7.60;99.90;;;;;;5012420;28;20052;-78
2021/11/08 02:12:41;;;;;;;0.20;0.20;;;7.60;99.90;;;;;;5013708;28;20096;-78
2021/11/08 02:15:10;;;;;;;0.20;0.20;;;7.60;99.90;;;;;;5012045;28;20141;-78
2021/11/08 02:17:37;;;;;;;0.30;0.30;;;7.50;99.90;;;;;;5013154;28;20389;-78
2021/11/08 02:20:16;;;;;;;0.30;0.30;;;7.50;99.90;;;;;;5012377;28;20076;-78
2021/11/08 02:22:44;;;;;;;0.30;0.30;;;7.50;99.90;;;;;;5011919;28;20029;-78
2021/11/08 02:25:11;;;;;;;0.20;0.20;;;7.50;99.90;;;;;;5012343;28;20046;-78
2021/11/08 02:27:39;;;;;;;0.20;0.20;;;7.50;99.90;;;;;;5013591;28;20040;-78
2021/11/08 02:30:06;;;;;;;0.30;0.30;;;7.50;99.90;;;;;;5011836;28;20033;-78
2021/11/08 02:32:33;;;;;;;0.20;0.20;;;7.50;99.90;;;;;;5013223;28;20025;-78
2021/11/08 02:35:00;;;;;;;0.20;0.20;;;7.50;99.90;;;;;;5011448;28;20045;-78
2021/11/08 02:37:27;;;;;;;0.20;0.20;;;7.50;99.90;;;;;;5012143;28;20030;-78
2021/11/08 02:39:53;;;;;;;0.20;0.20;;;7.50;99.90;;;;;;5011861;28;20381;-78
2021/11/08 02:42:20;;;;;;;0.20;0.20;;;7.50;99.90;;;;;;5013205;28;20458;-78
2021/11/08 02:44:45;;;;;;;0.20;0.20;;;7.60;99.90;;;;;;5012417;28;20465;-78
2021/11/08 02:47:13;;;;;;;0.20;0.20;;;7.50;99.90;;;;;;5011854;28;20104;-78
2021/11/08 02:49:43;;;;;;;0.20;0.20;;;7.50;99.90;;;;;;5012068;28;20119;-78
2021/11/08 02:52:10;;;;;;;0.20;0.20;;;7.50;99.90;;;;;;5013143;28;20029;-78
2021/11/08 02:54:45;;;;;;;0.20;0.20;;;7.50;99.90;;;;;;5011647;28;20026;-78
2021/11/08 02:57:11;;;;;;;0.30;0.30;;;7.50;99.90;;;;;;5011801;28;20030;-77
2021/11/08 02:59:38;;;;;;;0.20;0.20;;;7.50;99.90;;;;;;5012984;28;20461;-77
2021/11/08 03:02:06;;;;;;;0.35;0.22;;;7.50;99.90;;;;;;5013168;28;20088;-77
2021/11/08 03:04:39;;;;;;;0.20;0.20;;;7.40;99.90;;;;;;5011636;28;20022;-78
2021/11/08 03:07:05;;;;;;;0.20;0.20;;;7.40;99.90;;;;;;5011532;28;20027;-78
2021/11/08 03:09:34;;;;;;;0.20;0.20;;;7.40;99.90;;;;;;5011633;28;20033;-77
2021/11/08 03:12:08;;;;;;;0.32;0.30;;;7.40;99.90;;;;;;5012454;28;20029;-78
2021/11/08 03:14:37;;;;;;;0.20;0.20;;;7.40;99.90;;;;;;5015436;28;20030;-77
2021/11/08 03:17:04;;;;;;;0.20;0.20;;;7.40;99.90;;;;;;5016438;28;20030;-78
2021/11/08 03:21:58;;;;;;;0.43;0.30;;;7.40;99.90;;;;;;5016405;28;20033;-77
2021/11/08 03:24:39;;;;;;;0.20;0.20;;;7.40;99.90;;;;;;5016384;28;20026;-78
2021/11/08 03:27:47;;;;;;;0.20;0.20;;;7.40;99.90;;;;;;5016391;28;20026;-77
2021/11/08 03:29:58;;;;;;;;;;;7.40;99.90;;;;;;5016488;28;20164;-77
2021/11/08 03:32:24;;;;;;;0.22;0.22;;;7.40;99.90;;;;;;5031434;28;20000;-77
2021/11/08 03:34:58;;;;;;;0.20;0.20;;;7.40;99.90;;;;;;5016291;28;20133;-76
2021/11/08 03:37:26;;;;;;;0.20;0.20;;;7.40;99.90;;;;;;5015122;28;20030;-77
2021/11/08 03:39:51;;;;;;;0.20;0.20;;;7.40;99.90;;;;;;5014755;28;20385;-77
2021/11/08 03:42:18;;;;;;;0.20;0.20;;;7.40;99.90;;;;;;5015506;28;20447;-77
2021/11/08 03:44:44;;;;;;;0.20;0.20;;;7.40;99.90;;;;;;5016146;28;20048;-78
2021/11/08 03:47:11;;;;;;;0.30;0.30;;;7.40;99.90;;;;;;5016471;28;20109;-77
2021/11/08 03:49:36;;;;;;;0.20;0.20;;;7.40;99.90;;;;;;5015686;28;20049;-77
2021/11/08 03:52:03;;;;;;;0.20;0.20;;;7.40;99.90;;;;;;5015591;28;20463;-77
2021/11/08 03:54:29;;;;;;;0.30;0.30;;;7.30;99.90;;;;;;5014785;28;20025;-77
2021/11/08 03:56:55;;;;;;;0.20;0.20;;;7.30;99.90;;;;;;5016442;28;20092;-77
2021/11/08 03:59:22;;;;;;;0.20;0.20;;;7.30;99.90;;;;;;5015152;28;20365;-77
2021/11/08 04:01:48;;;;;;;0.20;0.20;;;7.30;99.90;;;;;;5014443;28;20030;-77
2021/11/08 04:04:14;;;;;;;0.47;0.30;;;7.30;99.90;;;;;;5016191;28;20454;-78
2021/11/08 04:06:41;;;;;;;0.30;0.30;;;7.30;99.90;;;;;;5014118;28;20021;-78
2021/11/08 04:09:08;;;;;;;0.20;0.20;;;7.30;99.90;;;;;;5013947;28;20026;-77
2021/11/08 04:11:34;;;;;;;0.30;0.30;;;7.20;99.90;;;;;;5015698;28;20057;-76
2021/11/08 04:14:01;;;;;;;0.20;0.20;;;7.20;99.90;;;;;;5014329;28;20335;-76
2021/11/08 04:16:29;;;;;;;0.20;0.20;;;7.20;99.90;;;;;;5015390;28;20062;-77
2021/11/08 04:18:56;;;;;;;0.20;0.20;;;7.20;99.90;;;;;;5015141;28;20524;-77
2021/11/08 04:21:23;;;;;;;0.30;0.30;;;7.20;99.90;;;;;;5017510;28;20021;-77
2021/11/08 04:23:50;;;;;;;0.30;0.30;;;7.20;99.90;;;;;;5015309;28;20018;-77
2021/11/08 04:26:21;;;;;;;0.28;0.28;;;7.20;99.90;;;;;;5015188;28;20096;-78
2021/11/08 04:29:03;;;;;;;0.30;0.30;;;7.20;99.90;;;;;;5014337;28;20084;-77
2021/11/08 04:31:34;;;;;;;0.20;0.20;;;7.10;99.90;;;;;;5014980;28;20036;-78
2021/11/08 04:34:06;;;;;;;0.30;0.30;;;7.10;99.90;;;;;;5013705;28;20026;-78
2021/11/08 04:39:32;;;;;;;0.30;0.30;;;7.10;99.90;;;;;;5015611;28;20041;-77
2021/11/08 04:55:01;;;;;;;0.28;0.28;;;7.10;99.90;;;;;;5014711;28;20096;-77
2021/11/08 05:24:42;;;;;;;0.35;0.35;;;7.20;99.90;;;;;;5014276;28;20042;-77
2021/11/08 05:30:00;;;;;;;0.30;0.30;;;7.30;99.90;;;;;;5014122;28;20060;-78
2021/11/08 05:32:30;;;;;;;0.30;0.30;;;7.30;99.90;;;;;;5012502;28;20071;-77
2021/11/08 05:34:56;;;;;;;0.20;0.20;;;7.30;99.90;;;;;;5012878;28;20148;-77
2021/11/08 05:37:23;;;;;;;0.30;0.30;;;7.20;99.90;;;;;;5012923;28;20367;-77
2021/11/08 05:39:51;;;;;;;0.30;0.30;;;7.20;99.90;;;;;;5012734;28;20028;-77
2021/11/08 05:42:17;;;;;;;0.30;0.30;;;7.20;99.90;;;;;;5012536;28;20069;-77
2021/11/08 05:44:44;;;;;;;0.30;0.30;;;7.20;99.90;;;;;;5013832;28;20030;-78
2021/11/08 05:47:09;;;;;;;0.30;0.30;;;7.20;99.90;;;;;;5012122;28;20118;-75
2021/11/08 05:49:36;;;;;;;0.30;0.30;;;7.10;99.90;;;;;;5013133;28;20037;-77
2021/11/08 05:52:03;;;;;;;0.30;0.30;;;7.10;99.90;;;;;;5013392;28;20029;-79
2021/11/08 05:54:29;;;;;;;0.30;0.30;;;7.10;99.90;;;;;;5012652;28;20064;-78
2021/11/08 05:57:20;;;;;;;0.20;0.20;;;7.10;99.90;;;;;;5013291;28;20045;-77
2021/11/08 05:59:59;;;;;;;0.30;0.30;;;7.10;99.90;;;;;;5013092;28;20105;-76
2021/11/08 06:51:35;;;;;;;0.30;0.30;;;7.50;99.90;;;;;;5017110;28;20084;-77
2021/11/08 06:54:02;;;;;;;0.82;0.32;;;7.50;99.90;;;;;;5015590;28;20080;-76
2021/11/08 06:56:31;;;;;;;0.20;0.20;;;7.40;99.90;;;;;;5015722;28;20462;-77
2021/11/08 06:58:57;;;;;;;0.30;0.30;;;7.40;99.90;;;;;;5016802;28;20018;-76
2021/11/08 07:01:23;;;;;;;0.22;0.22;;;7.40;99.90;;;;;;5016130;28;20366;-76
2021/11/08 07:03:49;;;;;;;0.20;0.20;;;7.30;99.90;;;;;;5015744;28;20033;-77
2021/11/08 07:06:15;;;;;;;0.32;0.30;;;7.30;99.90;;;;;;5015156;28;20049;-78
2021/11/08 07:08:41;;;;;;;0.30;0.30;;;7.30;99.90;;;;;;5017169;28;20494;-77
2021/11/08 07:11:06;;;;;;;0.35;0.30;;;7.30;99.90;;;;;;5015732;28;20026;-77
2021/11/08 07:13:32;;;;;;;0.30;0.30;;;7.40;99.90;;;;;;5017007;28;20021;-77
2021/11/08 07:15:58;;;;;;;0.30;0.30;;;7.40;99.90;;;;;;5015175;28;20033;-77
2021/11/08 07:18:23;;;;;;;0.30;0.30;;;7.50;99.90;;;;;;5016172;28;20022;-77
2021/11/08 07:20:49;;;;;;;0.32;0.22;;;7.60;99.90;;;;;;5015176;28;20386;-77
2021/11/08 07:23:15;;;;;;;0.30;0.30;;;7.60;99.90;;;;;;5015166;28;20383;-77
2021/11/08 07:25:42;;;;;;;0.20;0.20;;;7.70;99.90;;;;;;5014782;28;20025;-76
2021/11/08 07:28:11;;;;;;;0.40;0.30;;;7.70;99.90;;;;;;5015173;28;20466;-76
2021/11/08 07:30:38;;;;;;;0.30;0.30;;;7.70;99.90;;;;;;5016307;28;20105;-76
2021/11/08 07:33:04;;;;;;;0.20;0.20;;;7.80;99.90;;;;;;5016373;28;20105;-76
2021/11/08 07:35:29;;;;;;;0.30;0.30;;;7.80;99.90;;;;;;5016051;28;20460;-76
2021/11/08 07:37:55;;;;;;;0.30;0.30;;;7.80;99.90;;;;;;5016988;28;20112;-77
2021/11/08 07:40:21;;;;;;;0.20;0.20;;;7.90;99.90;;;;;;5015725;28;20072;-76
2021/11/08 07:42:48;;;;;;;0.30;0.30;;;7.90;99.90;;;;;;5016265;28;20301;-76
2021/11/08 07:45:14;;;;;;;0.20;0.20;;;7.90;99.90;;;;;;5015608;28;20064;-77
2021/11/08 07:47:40;;;;;;;0.20;0.20;;;7.90;99.90;;;;;;5015955;28;20378;-77
2021/11/08 07:50:06;;;;;;;0.40;0.40;;;8.00;99.90;;;;;;5015615;28;20105;-77
2021/11/08 07:52:32;;;;;;;0.20;0.20;;;8.00;99.90;;;;;;5014489;28;20367;-77
2021/11/08 07:54:59;;;;;;;0.20;0.20;;;8.00;99.90;;;;;;5015853;28;20083;-77
2021/11/08 07:57:24;;;;;;;0.30;0.30;;;8.00;99.90;;;;;;5014236;28;20026;-76
2021/11/08 07:59:50;;;;;;;0.20;0.20;;;8.00;99.90;;;;;;5013864;28;20036;-78
2021/11/08 08:02:16;;;;;;;0.22;0.22;;;8.00;99.90;;;;;;5015339;28;20054;-76
2021/11/08 08:04:41;;;;;;;0.75;0.30;;;8.00;99.90;;;;;;5016156;28;20446;-77
2021/11/08 08:07:08;;;;;;;0.30;0.30;;;8.10;99.90;;;;;;5014281;28;20026;-77
2021/11/08 08:09:35;;;;;;;0.30;0.30;;;8.10;99.90;;;;;;5014518;28;20029;-77
2021/11/08 08:12:00;;;;;;;0.20;0.20;;;8.10;99.90;;;;;;5014240;28;20026;-77
2021/11/08 08:14:26;;;;;;;0.30;0.30;;;8.20;99.90;;;;;;5014645;28;20030;-78
2021/11/08 08:16:52;;;;;;;0.20;0.20;;;8.10;99.90;;;;;;5014105;28;20022;-76
2021/11/08 08:19:20;;;;;;;0.30;0.30;;;8.10;99.90;;;;;;5013839;28;20491;-76
2021/11/08 08:21:46;;;;;;;0.20;0.20;;;8.20;99.90;;;;;;5015809;28;20022;-77
2021/11/08 08:24:11;;;;;;;0.30;0.30;;;8.20;99.90;;;;;;5013894;28;20080;-77
2021/11/08 08:26:40;;;;;;;0.30;0.30;;;8.20;99.90;;;;;;5014987;28;20030;-77
2021/11/08 08:29:07;;;;;;;0.30;0.30;;;8.20;99.90;;;;;;5015216;28;20014;-76
2021/11/08 08:31:35;;;;;;;0.30;0.30;;;8.30;99.90;;;;;;5015101;28;20022;-76
2021/11/08 08:34:02;;;;;;;0.30;0.30;;;8.30;99.90;;;;;;5013757;28;20108;-77
2021/11/08 08:36:28;;;;;;;0.30;0.30;;;8.40;99.90;;;;;;5013594;28;20086;-77
2021/11/08 08:38:54;;;;;;;0.20;0.20;;;8.40;99.90;;;;;;5015436;28;20022;-76
2021/11/08 08:41:20;;;;;;;0.30;0.30;;;8.50;99.90;;;;;;5014888;28;20026;-76
2021/11/08 08:43:46;;;;;;;0.30;0.30;;;8.50;99.90;;;;;;5013789;28;20018;-76
2021/11/08 08:46:13;;;;;;;0.30;0.30;;;8.60;99.90;;;;;;5014446;28;20101;-76
2021/11/08 08:48:39;;;;;;;0.30;0.30;;;8.60;99.90;;;;;;5014772;28;20033;-76
2021/11/08 08:51:07;;;;;;;0.30;0.25;;;8.60;99.90;;;;;;5014794;28;20434;-76
2021/11/08 08:53:36;;;;;;;0.40;0.40;;;8.70;99.90;;;;;;5015138;28;20052;-77
2021/11/08 08:56:02;;;;;;;0.40;0.40;;;8.70;99.90;;;;;;5015055;28;20078;-76
2021/11/08 08:58:30;;;;;;;0.30;0.30;;;8.80;99.90;;;;;;5013373;28;20036;-77
2021/11/08 09:00:56;;;;;;;0.75;0.40;;;8.80;99.90;;;;;;5014254;28;20021;-77
2021/11/08 09:03:22;;;;;;;0.22;0.22;;;8.80;99.90;;;;;;5012925;28;20089;-78
2021/11/08 09:05:48;;;;;;;0.30;0.30;;;8.80;99.90;;;;;;5014529;28;20423;-75
2021/11/08 09:08:15;;;;;;;0.20;0.20;;;8.80;99.90;;;;;;5013069;28;20026;-78
2021/11/08 09:10:42;;;;;;;0.22;0.22;;;8.80;99.90;;;;;;5013396;28;20036;-76
2021/11/08 09:13:08;;;;;;;0.30;0.30;;;8.80;99.90;;;;;;5014578;28;20121;-77
2021/11/08 09:15:35;;;;;;;0.30;0.30;;;8.80;99.90;;;;;;5014162;28;20096;-77
2021/11/08 09:18:03;;;;;;;0.30;0.30;;;8.90;99.90;;;;;;5014245;28;20034;-76
2021/11/08 09:20:30;;;;;;;0.43;0.30;;;9.00;99.90;;;;;;5013256;28;20017;-77
2021/11/08 09:22:57;;;;;;;0.20;0.20;;;9.00;99.90;;;;;;5013054;28;20120;-78
2021/11/08 09:25:25;;;;;;;0.20;0.20;;;9.10;99.90;;;;;;5014133;28;20057;-77
2021/11/08 09:27:54;;;;;;;0.30;0.30;;;9.20;99.90;;;;;;5014142;28;20458;-77
2021/11/08 09:30:22;;;;;;;0.30;0.30;;;9.20;99.90;;;;;;5013951;28;20022;-77
2021/11/08 09:32:53;;;;;;;0.30;0.30;;;9.30;99.90;;;;;;5082074;27;1416765;-78
2021/11/08 09:35:19;;;;;;;0.30;0.30;;;9.30;99.90;;;;;;5091358;28;20028;-77
2021/11/08 09:37:48;;;;;;;0.30;0.30;;;9.40;99.90;;;;;;5091724;28;20065;-77
2021/11/08 09:40:23;;;;;;;0.30;0.30;;;9.40;99.90;;;;;;5091099;28;20019;-77
2021/11/08 09:42:52;;;;;;;0.30;0.30;;;9.50;99.90;;;;;;5091595;28;20372;-76
2021/11/08 09:45:18;;;;;;;0.22;0.22;;;9.50;99.90;;;;;;5109370;28;20058;-75
2021/11/08 09:47:46;;;;;;;0.30;0.30;;;9.50;99.90;;;;;;5109835;28;20111;-75
2021/11/08 09:50:14;;;;;;;0.20;0.20;;;9.50;99.90;;;;;;5091269;28;20119;-76
2021/11/08 09:52:43;;;;;;;0.20;0.20;;;9.60;99.90;;;;;;5109690;28;20055;-76
2021/11/08 09:55:12;;;;;;;0.20;0.20;;;9.70;99.90;;;;;;5091334;28;20513;-77
2021/11/08 09:57:39;;;;;;;0.20;0.20;;;9.70;99.90;;;;;;5109029;28;20161;-77
2021/11/08 10:00:17;;;;;;;0.40;0.40;;;9.70;99.90;;;;;;5091275;28;20024;-77
2021/11/08 10:02:51;;;;;;;0.30;0.30;;;9.80;99.90;;;;;;5109976;28;20114;-77
2021/11/08 10:05:17;;;;;;;0.30;0.20;;;9.80;99.90;;;;;;5109137;28;20452;-76
2021/11/08 10:07:43;;;;;;;0.30;0.30;;;9.80;99.90;;;;;;5109382;28;20031;-76
2021/11/08 10:10:08;;;;;;;0.30;0.25;;;9.70;99.90;;;;;;5109333;28;20016;-76
2021/11/08 10:12:34;;;;;;;0.30;0.30;;;9.80;99.90;;;;;;5090537;28;20985;-76
2021/11/08 10:15:00;;;;;;;0.20;0.20;;;9.80;99.90;;;;;;5090977;28;20020;-75
2021/11/08 10:17:28;;;;;;;0.20;0.20;;;9.80;99.90;;;;;;5090472;28;20062;-78
2021/11/08 10:19:54;;;;;;;0.20;0.20;;;9.80;99.90;;;;;;5109227;28;20121;-76
2021/11/08 10:22:21;;;;;;;0.30;0.30;;;9.80;99.90;;;;;;5108317;28;20032;-77
2021/11/08 10:24:48;;;;;;;0.20;0.20;;;9.90;99.90;;;;;;5109117;28;20170;-77
2021/11/08 10:27:17;;;;;;;0.20;0.20;;;9.90;99.90;;;;;;5109098;28;20051;-77
2021/11/08 10:29:45;;;;;;;0.20;0.20;;;10.00;99.90;;;;;;5109187;28;20024;-78
2021/11/08 10:32:11;;;;;;;0.20;0.20;;;10.10;99.90;;;;;;5086998;28;20052;-77
2021/11/08 10:34:51;;;;;;;0.20;0.20;;;10.20;99.90;;;;;;5087945;28;20020;-76
2021/11/08 10:37:28;;;;;;;0.20;0.20;;;10.30;99.90;;;;;;5087102;28;20126;-76
2021/11/08 10:39:55;;;;;;;0.20;0.20;;;10.30;99.90;;;;;;5088349;28;20476;-76
2021/11/08 10:42:23;;;;;;;0.20;0.20;;;10.30;99.90;;;;;;5084132;28;20429;-77
2021/11/08 10:44:49;;;;;;;0.20;0.20;;;10.30;99.90;;;;;;5075005;28;20027;-77
2021/11/08 10:47:18;;;;;;;1.25;0.30;;;10.20;99.90;;;;;;5074641;28;20096;-75
2021/11/08 10:49:45;;;;;;;0.30;0.30;;;10.20;99.90;;;;;;5075069;28;20020;-75
2021/11/08 10:52:15;;;;;;;0.28;0.28;;;10.20;99.90;;;;;;5074858;28;20032;-78
2021/11/08 10:54:54;;;;;;;0.30;0.30;;;10.30;99.90;;;;;;5073001;28;20033;-76
2021/11/08 10:57:25;;;;;;;0.88;0.32;;;10.40;99.90;;;;;;5073052;28;20016;-76
2021/11/08 10:59:53;;;;;;;0.32;0.25;;;10.40;99.90;;;;;;5074692;28;20107;-76
2021/11/08 11:02:24;;;;;;;0.25;0.25;;;10.40;99.90;;;;;;5072912;28;20028;-76
2021/11/08 11:04:56;;;;;;;0.60;0.30;;;10.40;99.90;;;;;;5074716;28;20024;-76
2021/11/08 11:07:28;;;;;;;0.30;0.30;;;10.50;99.90;;;;;;5072900;28;20056;-76
2021/11/08 11:10:04;;;;;;;0.47;0.30;;;10.50;99.90;;;;;;5074497;28;20110;-76
2021/11/08 11:12:30;;;;;;;0.32;0.30;;;10.60;99.90;;;;;;5072678;28;20032;-76
2021/11/08 11:14:59;;;;;;;0.20;0.20;;;10.80;99.90;;;;;;5072661;28;20076;-76
2021/11/08 11:17:29;;;;;;;0.20;0.20;;;10.90;99.90;;;;;;5074083;28;20021;-76
2021/11/08 11:20:20;;;;;;;0.20;0.20;;;11.00;99.90;;;;;;5073674;28;20016;-76
2021/11/08 11:23:09;;;;;;;1.48;0.20;;;11.00;99.90;;;;;;5073656;28;20472;-76
2021/11/08 11:25:40;;;;;;;1.08;0.20;;;11.10;99.90;;;;;;5073820;28;20038;-75
2021/11/08 11:28:09;;;;;;;;;;;11.30;99.90;;;;;;5074543;28;20021;-76
2021/11/08 11:30:38;;;;;;;0.20;0.20;;;11.30;99.90;;;;;;5073539;28;19904;-78
2021/11/08 11:33:09;;;;;;;0.20;0.20;;;11.30;99.90;;;;;;5093773;28;20075;-76
2021/11/08 11:35:45;;;;;;;0.35;0.35;;;11.20;99.90;;;;;;5094103;28;20448;-76
2021/11/08 11:38:24;;;;;;;0.25;0.25;;;11.30;99.90;;;;;;5094359;28;20468;-76
2021/11/08 11:40:58;;;;;;;0.45;0.30;;;11.20;99.90;;;;;;5094310;28;20102;-76
2021/11/08 11:43:37;;;;;;;0.20;0.20;;;11.30;99.90;;;;;;5075438;28;20024;-76
2021/11/08 11:46:06;;;;;;;0.30;0.30;;;11.40;99.90;;;;;;5094268;28;20460;-75
2021/11/08 11:48:34;;;;;;;0.20;0.20;;;11.40;99.90;;;;;;5075260;28;20016;-76
2021/11/08 11:51:01;;;;;;;0.20;0.20;;;11.40;99.90;;;;;;5093830;28;20028;-75
2021/11/08 11:53:29;;;;;;;0.20;0.20;;;11.60;99.90;;;;;;5093040;28;20027;-76
2021/11/08 11:55:55;;;;;;;0.20;0.20;;;11.70;99.90;;;;;;5074691;28;20020;-77
2021/11/08 11:58:21;;;;;;;0.85;0.38;;;11.80;99.90;;;;;;5075275;28;20016;-77
2021/11/08 12:00:50;;;;;;;0.30;0.30;;;12.00;99.90;;;;;;5093649;28;20514;-77
2021/11/08 12:03:16;;;;;;;1.10;0.25;;;12.10;99.90;;;;;;5075076;28;20357;-77
2021/11/08 12:05:44;;;;;;;0.25;0.25;;;12.20;99.90;;;;;;5075034;28;20593;-77
2021/11/08 12:08:12;;;;;;;0.30;0.30;;;12.20;99.90;;;;;;5075446;28;20035;-77
2021/11/08 12:10:52;;;;;;;0.20;0.20;;;12.20;99.80;;;;;;5093205;28;20072;-77
2021/11/08 12:13:21;;;;;;;0.20;0.20;;;12.20;99.80;;;;;;5093637;28;20032;-77
2021/11/08 12:15:48;;;;;;;0.20;0.20;;;12.20;99.80;;;;;;5074876;28;20031;-76
2021/11/08 12:18:16;;;;;;;0.43;0.30;;;12.20;99.80;;;;;;5075243;28;20016;-76
2021/11/08 12:20:45;;;;;;;0.40;0.30;;;12.20;99.80;;;;;;5074724;28;20024;-76
2021/11/08 12:23:18;;;;;;;0.30;0.30;;;12.20;99.80;;;;;;5093820;28;20020;-76
2021/11/08 12:25:45;;;;;;;0.30;0.30;;;12.20;99.80;;;;;;5093970;28;20044;-77
2021/11/08 12:28:16;;;;;;;0.30;0.30;;;12.20;99.80;;;;;;5076217;28;20371;-77
2021/11/08 12:30:48;;;;;;;0.85;0.40;;;12.20;99.80;;;;;;5075356;28;20016;-76
2021/11/08 12:33:57;;;;;;;0.28;0.28;;;12.20;99.90;;;;;;5094251;28;20124;-76
2021/11/08 12:36:23;;;;;;;0.30;0.30;;;12.20;99.80;;;;;;5045143;28;20032;-76
2021/11/08 12:38:56;;;;;;;0.20;0.20;;;12.20;99.80;;;;;;5092629;28;20447;-76
2021/11/08 12:41:48;;;;;;;0.30;0.30;;;12.20;99.80;;;;;;5093018;28;20062;-76
2021/11/08 12:44:17;;;;;;;0.20;0.20;;;12.20;99.80;;;;;;5093096;28;20151;-76
2021/11/08 12:46:47;;;;;;;0.25;0.25;;;12.20;99.90;;;;;;5092468;28;20022;-76
2021/11/08 12:49:17;;;;;;;0.30;0.30;;;12.20;99.90;;;;;;5092807;28;20110;-76
2021/11/08 12:51:54;;;;;;;0.20;0.20;;;12.20;99.90;;;;;;5074309;28;20369;-76
2021/11/08 12:54:21;;;;;;;1.00;0.40;;;12.20;99.90;;;;;;5074181;28;20031;-76
2021/11/08 12:56:47;;;;;;;0.20;0.20;;;12.20;99.90;;;;;;5092593;28;20023;-75
2021/11/08 12:59:23;;;;;;;0.20;0.20;;;12.20;99.90;;;;;;5074299;28;20032;-76
2021/11/08 13:01:59;;;;;;;0.20;0.20;;;12.20;99.90;;;;;;5073913;28;20058;-75
2021/11/08 13:04:32;;;;;;;0.47;0.10;;;12.20;99.90;;;;;;5074467;28;20437;-75
2021/11/08 13:07:09;;;;;;;0.20;0.20;;;12.20;99.90;;;;;;5092442;28;20024;-75
2021/11/08 13:09:48;;;;;;;0.40;0.30;;;12.10;99.90;;;;;;5091782;28;20024;-75
2021/11/08 13:12:18;;;;;;;0.30;0.30;;;12.10;99.90;;;;;;5074212;28;20533;-76
2021/11/08 13:14:49;;;;;;;0.93;0.35;;;12.10;99.90;;;;;;5073826;28;20024;-75
2021/11/08 13:17:21;;;;;;;0.43;0.43;;;12.00;99.90;;;;;;5074156;28;20463;-76
2021/11/08 13:19:56;;;;;;;0.60;0.30;;;12.00;99.90;;;;;;5091962;28;20017;-76
2021/11/08 13:22:28;;;;;;;0.38;0.30;;;11.90;99.90;;;;;;5074257;28;20352;-76
2021/11/08 13:25:16;;;;;;;0.40;0.28;;;11.80;99.90;;;;;;5074150;28;20024;-76
2021/11/08 13:28:05;;;;;;;0.20;0.20;;;11.90;99.90;;;;;;5091861;28;20077;-76
2021/11/08 13:30:42;;;;;;;0.28;0.28;;;11.90;99.90;;;;;;5091852;28;20042;-76
2021/11/08 13:33:10;;;;;;;0.52;0.35;;;11.90;99.90;;;;;;5092462;28;20056;-76
2021/11/08 13:35:39;;;;;;;0.57;0.50;;;11.90;99.90;;;;;;5092071;28;20416;-75
2021/11/08 13:38:13;;;;;;;0.20;0.20;;;11.90;99.90;;;;;;5091868;28;20023;-75
2021/11/08 13:40:44;;;;;;;0.30;0.30;;;12.00;99.90;;;;;;5073618;28;20024;-75
2021/11/08 13:43:23;;;;;;;0.30;0.30;;;12.00;99.90;;;;;;5093340;28;20102;-75
2021/11/08 13:46:05;;;;;;;0.32;0.30;;;12.00;99.90;;;;;;5091593;28;20106;-75
2021/11/08 13:48:37;;;;;;;0.30;0.30;;;12.00;99.90;;;;;;5073342;28;20024;-76
2021/11/08 13:51:07;;;;;;;0.40;0.40;;;12.00;99.90;;;;;;5091904;28;20031;-76
2021/11/08 13:53:37;;;;;;;0.45;0.40;;;12.00;99.90;;;;;;5091678;28;20034;-76
2021/11/08 13:56:08;;;;;;;0.30;0.20;;;12.00;99.90;;;;;;5092255;28;20028;-76
2021/11/08 13:58:35;;;;;;;0.32;0.30;;;12.10;99.90;;;;;;5073402;28;20439;-76
2021/11/08 14:01:09;;;;;;;0.63;0.50;;;12.10;99.90;;;;;;5092027;28;20081;-76
2021/11/08 14:03:41;;;;;;;0.50;0.50;;;12.20;99.90;;;;;;5073376;28;20123;-76
2021/11/08 14:06:08;;;;;;;1.80;0.75;;;12.20;99.90;;;;;;5091557;28;20420;-76
2021/11/08 14:08:37;;;;;;;0.45;0.45;;;12.20;99.90;;;;;;5073328;28;20320;-77
2021/11/08 14:11:03;;;;;;;0.88;0.52;;;12.20;99.90;;;;;;5073682;28;20082;-76
2021/11/08 14:13:37;;;;;;;2.65;1.15;;;12.20;99.80;;;;;;5073792;28;20156;-75
2021/11/08 14:16:08;;;;;;;4.95;1.00;;;12.30;99.80;;;;;;5091891;28;20107;-76
2021/11/08 14:18:33;;;;;;;;;;;12.30;99.80;;;;;;5093521;28;20024;-75
2021/11/08 14:21:12;;;;;;;6.97;1.90;;;12.20;99.80;;;;;;5077270;28;20001;-75
2021/11/08 14:23:41;;;;;;;3.97;1.75;;;12.20;99.80;;;;;;5076924;28;20024;-75
2021/11/08 14:26:18;;;;;;;4.35;1.50;;;12.20;99.80;;;;;;5095609;28;20157;-78
2021/11/08 14:28:45;;;;;;;7.80;1.95;;;12.20;99.80;;;;;;5076896;28;20023;-76
2021/11/08 14:31:28;;;;;;;10.60;2.22;;;12.20;99.90;;;;;;5095163;28;20460;-76
2021/11/08 14:33:57;;;;;;;9.60;2.30;;;12.20;99.90;;;;;;5076569;28;20031;-75
2021/11/08 14:36:29;;;;;;;6.57;1.98;;;12.10;99.90;;;;;;5095359;28;20021;-75
2021/11/08 14:39:01;;;;;;;15.18;2.75;;;12.20;99.90;;;;;;5094942;28;20020;-78
2021/11/08 14:41:32;;;;;;;15.02;2.90;;;12.10;99.90;;;;;;5095472;28;20059;-78
2021/11/08 14:44:05;;;;;;;19.17;3.30;;;12.10;99.90;;;;;;5095343;28;20479;-78
2021/11/08 14:46:39;;;;;;;8.75;3.00;;;12.20;99.90;;;;;;5095302;28;20475;-77
2021/11/08 14:49:10;;;;;;;14.50;3.55;;;12.10;99.90;;;;;;5095159;28;20024;-76